• Join FlightAware (Why Join?)
  • Login
  • US Flag 
08:33PM EDT


 

Airport Tracker/Info


-or-


 

Live Flight TrackerFlight Track Log ✈ UAL96 ✈ 24-Apr-2013 ✈ KEWR - EDDT / TXL

Flight Track Log - Related Links

Times and Time Zones

All times are in EDT time to prevent confusion due to time zone crossing. See the UAL96 flight status page for this flight to view local times or setup timezone preferences in your user account.

Time Position Orientation Groundspeed Altitude Reporting Facility
EDT Latitude Longitude Course Direction KTS MPH feet Rate Location/Type
05:50PM 40.6822 -74.1864 205° Southwest 145 167 700  Level FlightAware ADS-B
05:50PM 40.6786 -74.1878 196° South 172 198 1,000 3,600 Climbing FlightAware ADS-B
05:50PM 40.6746 -74.1887 190° South 168 193 1,300 2,100 Climbing FlightAware ADS-B
05:50PM 40.6570 -74.1947 195° South 182 209 2,000 1,620 Climbing FlightAware ADS-B
05:51PM 40.6463 -74.2023 208° Southwest 199 229 2,300 1,320 Climbing FlightAware ADS-B
05:51PM 40.6430 -74.2062 222° Southwest 204 235 2,400 1,500 Climbing FlightAware ADS-B
05:51PM 40.6410 -74.2092 229° Southwest 211 243 2,500 1,320 Climbing FlightAware ADS-B
05:51PM 40.6382 -74.2158 241° Southwest 218 251 2,600 1,080 Climbing FlightAware ADS-B
05:51PM 40.6365 -74.2229 252° West 227 261 2,700 900 Climbing FlightAware ADS-B
05:51PM 40.6348 -74.2324 257° West 238 274 2,800 1,380 Climbing FlightAware ADS-B
05:51PM 40.6333 -74.2422 259° West 246 283 3,000 2,160 Climbing FlightAware ADS-B
05:51PM 40.6305 -74.2659 261° West 250 288 3,600 2,040 Climbing FlightAware ADS-B
05:52PM 40.6290 -74.2858 264° West 262 302 4,000 1,380 Climbing FlightAware ADS-B
05:52PM 40.6307 -74.2992 279° West 268 308 4,100 1,260 Climbing FlightAware ADS-B
05:52PM 40.6573 -74.3309 318° Northwest 276 318 4,800 1,320 Climbing FlightAware ADS-B
05:52PM 40.6638 -74.3325 349° North 286 329 4,900 900 Climbing FlightAware ADS-B
05:53PM 40.6927 -74.3318 North 302 348 5,200 660 Climbing FlightAware ADS-B
05:53PM 40.7240 -74.3050 33° Northeast 312 359 5,500 840 Climbing FlightAware
05:54PM 40.7433 -74.2540 63° Northeast 323 372 6,000 1,080 Climbing FlightAware ADS-B
05:54PM 40.7536 -74.2250 65° Northeast 323 372 6,300 1,020 Climbing FlightAware ADS-B
05:54PM 40.7546 -74.2223 64° Northeast 325 374 6,300 1,500 Level FlightAware ADS-B
05:54PM 40.7613 -74.2032 65° Northeast 323 372 6,600 1,500 Climbing FlightAware ADS-B
05:54PM 40.7661 -74.1864 69° East 323 372 6,800 960 Climbing FlightAware ADS-B
05:54PM 40.7689 -74.1697 78° East 317 365 6,900 720 Climbing FlightAware ADS-B
05:55PM 40.7720 -74.1394 82° East 321 369 7,100 540 Climbing FlightAware ADS-B
05:55PM 40.7732 -74.1270 83° East 320 368 7,100  Level FlightAware ADS-B
05:55PM 40.7761 -74.0945 83° East 317 365 7,100  Level FlightAware ADS-B
05:55PM 40.7764 -74.0918 82° East 318 366 7,100 1,980 Level FlightAware ADS-B
05:55PM 40.7793 -74.0595 83° East 323 372 7,700 2,400 Climbing FlightAware ADS-B
05:56PM 40.7809 -74.0441 82° East 317 365 8,100 3,000 Climbing FlightAware ADS-B
05:56PM 40.7824 -74.0290 83° East 321 369 8,500 2,820 Climbing FlightAware ADS-B
05:56PM 40.7840 -74.0111 83° East 322 371 8,900 2,760 Climbing FlightAware ADS-B
05:56PM 40.7852 -73.9986 83° East 322 371 9,200 1,560 Climbing FlightAware ADS-B
05:56PM 40.7965 -73.9272 78° East 344 396 10,000 660 Climbing FlightAware ADS-B
05:57PM 40.8291 -73.8563 59° Northeast 341 392 10,100 1,080 Climbing FlightAware ADS-B
05:58PM 40.8726 -73.7978 45° Northeast 341 392 11,500 2,280 Climbing FlightAware ADS-B
05:58PM 40.8859 -73.7866 32° Northeast 332 382 12,000 2,040 Climbing FlightAware ADS-B
05:59PM 40.9290 -73.7530 30° Northeast 348 400 13,000 1,620 Climbing FlightAware
05:59PM 40.9508 -73.7363 30° Northeast 352 405 13,300 1,020 Climbing FlightAware ADS-B
05:59PM 40.9977 -73.7004 30° Northeast 391 450 13,800 1,140 Climbing FlightAware ADS-B
06:00PM 41.0556 -73.6558 30° Northeast 415 478 14,600 1,620 Climbing FlightAware ADS-B
06:00PM 41.1059 -73.6168 30° Northeast 424 488 15,600 2,100 Climbing FlightAware ADS-B
06:01PM 41.1601 -73.5746 30° Northeast 429 494 16,800 2,100 Climbing FlightAware ADS-B
06:02PM 41.2264 -73.5233 30° Northeast 437 503 18,100 1,920 Climbing FlightAware ADS-B
06:02PM 41.3170 -73.4527 30° Northeast 446 513 19,700 1,620 Climbing FlightAware ADS-B
06:03PM 41.3720 -73.4090 31° Northeast 458 527 20,400 1,200 Climbing FlightAware
06:03PM 41.3956 -73.3914 29° Northeast 466 536 20,600 2,160 Climbing FlightAware ADS-B
06:04PM 41.4514 -73.3477 30° Northeast 461 531 21,900 1,920 Climbing FlightAware ADS-B
06:05PM 41.5420 -73.2510 39° Northeast 467 537 23,500 1,620 Climbing FlightAware
06:05PM 41.6160 -73.1540 44° Northeast 472 543 24,800 1,500 Climbing FlightAware
06:06PM 41.6940 -73.1150 20° North 470 541 25,700 780 Climbing FlightAware
06:07PM 41.7760 -73.1110 North 470 541 25,900 120 Climbing FlightAware
06:07PM 41.8500 -73.1050 North 470 541 25,900 2,280 Level FlightAware
06:08PM 41.8980 -73.1460 328° Northwest 470 541 28,000 2,460 Climbing FlightAware
06:08PM 41.9940 -73.1640 352° North 470 541 28,400 1,200 Climbing FlightAware
06:09PM 42.0870 -73.1790 353° North 479 551 29,700 1,800 Climbing FlightAware
06:10PM 42.1720 -73.1930 353° North 475 547 30,800 720 Climbing FlightAware
06:10PM 42.2630 -73.2110 352° North 475 547 30,800 1,200 Level FlightAware
06:11PM 41.1070 -73.6160 195° South 31,700 2,160 Climbing FlightAware
06:11PM 42.4030 -73.2150 13° North 479 551 33,000 840 Climbing FlightAware
06:12PM 42.4870 -73.1840 15° North 479 551 33,000 960 Level FlightAware
06:13PM 42.5230 -73.0510 70° East 502 578 34,300 1,560 Climbing FlightAware
06:13PM 42.5740 -72.9390 58° Northeast 500 575 35,000 480 Climbing FlightAware
06:14PM 42.6270 -72.8180 59° Northeast 503 579 35,000  Level FlightAware
06:15PM 42.6760 -72.7070 59° Northeast 505 581 35,000  Level FlightAware
06:16PM 42.7320 -72.5820 59° Northeast 502 578 35,000  Level FlightAware
06:16PM 42.7800 -72.4730 59° Northeast 497 572 35,000  Level FlightAware
06:17PM 42.8260 -72.3680 59° Northeast 497 572 35,000  Level FlightAware
06:18PM 42.8790 -72.2480 59° Northeast 495 570 35,000  Level FlightAware
06:18PM 42.9260 -72.1400 59° Northeast 496 571 35,000  Level FlightAware
06:19PM 42.9800 -72.0170 59° Northeast 497 572 35,000  Level FlightAware
06:20PM 43.0260 -71.9100 60° Northeast 498 573 35,000  Level FlightAware
06:21PM 43.0780 -71.7910 59° Northeast 484 557 35,000  Level FlightAware
06:21PM 43.1220 -71.6890 59° Northeast 465 535 35,000  Level FlightAware
06:22PM 43.1710 -71.5720 60° Northeast 467 537 35,000  Level FlightAware
06:23PM 43.2160 -71.4670 60° Northeast 482 555 35,000  Level FlightAware
06:23PM 43.2610 -71.3610 60° Northeast 491 565 35,000  Level FlightAware
06:24PM 43.3110 -71.2440 60° Northeast 498 573 35,000  Level FlightAware
06:25PM 43.3570 -71.1330 60° Northeast 501 577 35,000  Level FlightAware
06:25PM 43.4040 -71.0220 60° Northeast 503 579 35,000  Level FlightAware
06:26PM 43.4570 -70.8940 60° Northeast 491 565 35,000  Level FlightAware
06:27PM 43.4950 -70.8030 60° Northeast 482 555 35,000  Level FlightAware
06:28PM 43.5490 -70.6740 60° Northeast 473 544 35,000  Level FlightAware
06:28PM 43.5930 -70.5670 60° Northeast 473 544 35,000  Level FlightAware
06:29PM 43.6360 -70.4630 60° Northeast 471 542 35,000  Level FlightAware
06:30PM 43.6840 -70.3450 61° Northeast 467 537 35,000  Level FlightAware
06:30PM 43.7260 -70.2410 61° Northeast 466 536 35,000  Level FlightAware
06:31PM 43.7730 -70.1250 61° Northeast 465 535 35,000  Level FlightAware
06:32PM 43.8150 -70.0220 61° Northeast 463 533 35,000  Level FlightAware
06:32PM 43.8570 -69.9180 61° Northeast 463 533 35,000  Level FlightAware
06:33PM 43.9050 -69.7990 61° Northeast 465 535 35,000  Level FlightAware
06:34PM 43.9400 -69.7110 61° Northeast 462 532 35,000  Level FlightAware
06:34PM 43.9880 -69.5910 61° Northeast 461 531 35,000  Level FlightAware
06:35PM 44.0330 -69.4760 61° Northeast 464 534 35,000  Level FlightAware
06:36PM 44.0710 -69.3820 61° Northeast 467 537 35,000  Level FlightAware
06:37PM 44.1220 -69.2510 61° Northeast 468 539 35,000  Level FlightAware
06:37PM 44.1630 -69.1460 61° Northeast 468 539 35,000  Level FlightAware
06:38PM 44.2030 -69.0430 62° Northeast 470 541 35,000  Level FlightAware
06:39PM 44.2510 -68.9210 61° Northeast 471 542 35,000  Level FlightAware
06:39PM 44.2920 -68.8160 61° Northeast 472 543 35,000  Level FlightAware
06:40PM 44.3330 -68.7080 62° Northeast 472 543 35,000  Level FlightAware
06:41PM 44.3790 -68.5890 62° Northeast 470 541 35,000  Level FlightAware
06:41PM 44.4200 -68.4820 62° Northeast 469 540 35,000  Level FlightAware
06:42PM 44.4610 -68.3740 62° Northeast 467 537 35,000  Level FlightAware
06:43PM 44.5060 -68.2550 62° Northeast 464 534 35,000  Level FlightAware
06:44PM 44.5470 -68.1470 62° Northeast 463 533 35,000  Level FlightAware
06:44PM 44.5930 -68.0250 62° Northeast 460 529 35,000  Level FlightAware
06:45PM 44.6320 -67.9200 62° Northeast 458 527 35,000  Level FlightAware
06:46PM 44.6750 -67.8050 62° Northeast 455 524 35,000  Level FlightAware
06:46PM 44.7140 -67.6990 63° Northeast 452 520 35,000  Level FlightAware
06:47PM 44.7530 -67.5940 62° Northeast 449 517 35,000  Level FlightAware
06:48PM 44.7950 -67.4810 62° Northeast 449 517 35,000  Level FlightAware
06:48PM 44.8340 -67.3760 62° Northeast 446 513 35,000  Level FlightAware
06:49PM 44.8700 -67.2760 63° Northeast 445 512 35,000  Level FlightAware
06:50PM 44.9150 -67.1590 61° Northeast 446 513 35,000  Level FlightAware
06:51PM 44.9660 -67.0660 52° Northeast 438 504 35,000  Level FlightAware
06:51PM 45.0250 -66.9680 50° Northeast 445 512 35,000  Level FlightAware
06:52PM 45.0800 -66.8780 49° Northeast 447 514 35,000  Level FlightAware
06:53PM 45.1330 -66.7900 49° Northeast 447 514 35,000  Level FlightAware
06:53PM 45.1940 -66.6880 50° Northeast 448 516 35,000  Level FlightAware
06:54PM 45.2460 -66.5990 50° Northeast 449 517 35,000  Level FlightAware
06:55PM 45.3000 -66.5100 49° Northeast 450 518 35,000  Level FlightAware
06:55PM 45.3610 -66.4060 50° Northeast 450 518 35,000  Level FlightAware
06:56PM 45.4130 -66.3170 50° Northeast 450 518 35,000  Level FlightAware
06:57PM 45.4740 -66.2130 50° Northeast 450 518 35,000  Level FlightAware
06:58PM 45.5270 -66.1240 50° Northeast 450 518 35,000  Level FlightAware
06:58PM 45.5870 -66.0190 51° Northeast 452 520 35,000  Level FlightAware
06:59PM 45.6410 -65.9260 50° Northeast 452 520 35,000  Level FlightAware
07:00PM 45.6940 -65.8360 50° Northeast 452 520 35,000  Level FlightAware
07:00PM 45.7550 -65.7310 50° Northeast 451 519 35,000  Level FlightAware
07:01PM 45.8070 -65.6400 51° Northeast 445 512 35,000  Level FlightAware
07:02PM 45.8540 -65.5580 51° Northeast 444 511 35,000  Level FlightAware
07:02PM 45.9190 -65.4440 51° Northeast 450 518 35,000  Level FlightAware
07:03PM 45.9680 -65.3590 50° Northeast 451 519 35,000  Level FlightAware
07:04PM 46.0320 -65.2470 51° Northeast 454 522 35,000  Level FlightAware
07:04PM 46.0730 -65.1750 51° Northeast 456 525 35,000  Level FlightAware
07:05PM 46.1340 -65.0670 51° Northeast 460 529 35,000  Level FlightAware
07:06PM 46.1890 -64.9700 51° Northeast 460 529 35,000  Level FlightAware
07:07PM 46.2360 -64.8900 50° Northeast 460 529 35,000  Level FlightAware
07:07PM 46.2820 -64.8100 50° Northeast 460 529 35,000  Level FlightAware
07:08PM 46.3290 -64.7300 50° Northeast 460 529 35,000  Level FlightAware
07:09PM 46.3870 -64.6300 50° Northeast 460 529 35,000  Level FlightAware
07:09PM 46.4340 -64.5490 50° Northeast 460 529 35,000  Level FlightAware
07:10PM 46.4800 -64.4690 50° Northeast 460 529 35,000  Level FlightAware
07:11PM 46.5270 -64.3880 50° Northeast 460 529 35,000  Level FlightAware
07:11PM 46.5730 -64.3080 50° Northeast 460 529 35,000  Level FlightAware
07:12PM 46.6310 -64.2070 50° Northeast 460 529 35,000  Level FlightAware
07:13PM 46.6780 -64.1260 50° Northeast 460 529 35,000  Level FlightAware
07:14PM 46.7240 -64.0450 50° Northeast 460 529 35,000  Level FlightAware
07:14PM 46.7710 -63.9640 50° Northeast 460 529 35,000  Level FlightAware
07:15PM 46.8290 -63.8630 50° Northeast 460 529 35,000  Level FlightAware
07:15PM 46.9667 -63.5167 50° Northeast 490 564 35,000  Level Moncton Center
07:16PM 47.0500 -63.3667 51° Northeast 490 564 35,000  Level Moncton Center
07:17PM 47.1167 -63.1833 62° Northeast 490 564 35,000  Level Moncton Center
07:18PM 47.2000 -63.0500 47° Northeast 490 564 35,000  Level Moncton Center
07:19PM 47.2833 -62.8667 56° Northeast 490 564 35,000  Level Moncton Center
07:20PM 47.3667 -62.7167 51° Northeast 490 564 35,000  Level Moncton Center
07:21PM 47.4500 -62.5667 51° Northeast 490 564 35,000  Level Moncton Center
07:22PM 47.5333 -62.3833 56° Northeast 490 564 35,000  Level Moncton Center
07:23PM 47.6167 -62.2333 50° Northeast 500 575 35,000  Level Moncton Center
07:24PM 47.7167 -62.0500 51° Northeast 490 564 35,000  Level Moncton Center
07:25PM 47.7833 -61.9000 56° Northeast 500 575 35,000  Level Moncton Center
07:26PM 47.8667 -61.7333 53° Northeast 490 564 35,000  Level Moncton Center
07:27PM 47.9500 -61.5667 53° Northeast 490 564 35,000  Level Moncton Center
07:28PM 48.0333 -61.4000 53° Northeast 490 564 35,000  Level Moncton Center
07:29PM 48.1167 -61.2333 53° Northeast 490 564 35,000  Level Moncton Center
07:30PM 48.1833 -61.0500 61° Northeast 490 564 35,000  Level Moncton Center
07:31PM 48.2833 -60.9000 45° Northeast 490 564 35,000  Level Moncton Center
07:32PM 48.3500 -60.7500 56° Northeast 490 564 35,000  Level Moncton Center
07:33PM 48.4333 -60.5667 56° Northeast 500 575 35,000  Level Moncton Center
07:34PM 48.5167 -60.4000 53° Northeast 500 575 35,000  Level Moncton Center
07:35PM 48.6000 -60.2167 55° Northeast 500 575 35,000 420 Level Moncton Center
07:36PM 48.6833 -60.0667 50° Northeast 500 575 35,900 480 Climbing Gander Center
07:37PM 48.7500 -59.9000 59° Northeast 500 575 36,000  Climbing Moncton Center
07:38PM 48.8500 -59.7167 50° Northeast 490 564 36,000  Level Moncton Center
07:39PM 48.9167 -59.5500 59° Northeast 490 564 36,000  Level Gander Center
07:40PM 49.0000 -59.3667 55° Northeast 490 564 36,000  Level Moncton Center
07:41PM 49.0667 -59.2000 59° Northeast 490 564 36,000  Level Moncton Center
07:42PM 49.1500 -59.0500 50° Northeast 490 564 36,000  Level Moncton Center
07:43PM 49.2333 -58.8500 57° Northeast 490 564 36,000  Level Moncton Center
07:44PM 49.3000 -58.7000 56° Northeast 490 564 36,000  Level Moncton Center
07:45PM 49.3667 -58.5333 58° Northeast 490 564 36,000  Level Gander Center
07:46PM 49.4500 -58.3333 57° Northeast 500 575 36,000  Level Moncton Center
07:47PM 49.5167 -58.1500 61° Northeast 500 575 36,000  Level Moncton Center
07:48PM 49.5833 -57.9500 63° Northeast 500 575 36,000  Level Gander Center
07:49PM 49.6500 -57.7667 61° Northeast 500 575 36,000  Level Gander Center
07:50PM 49.7167 -57.6167 55° Northeast 500 575 36,000  Level Gander Center
07:51PM 49.7833 -57.4000 64° Northeast 500 575 36,000  Level Gander Center
07:52PM 49.8500 -57.2167 61° Northeast 490 564 36,000  Level Gander Center
07:53PM 49.9000 -57.0167 69° East 490 564 36,000  Level Gander Center
07:54PM 49.9833 -56.8333 55° Northeast 490 564 36,000  Level Gander Center
07:55PM 50.0500 -56.6500 60° Northeast 490 564 36,000  Level Gander Center
07:56PM 50.1000 -56.4500 69° East 490 564 36,000  Level Gander Center
07:57PM 50.1667 -56.2667 60° Northeast 490 564 36,000  Level Gander Center
07:58PM 50.2167 -56.0833 67° East 480 552 36,000  Level Gander Center
07:59PM 50.2833 -55.9167 58° Northeast 480 552 36,000  Level Gander Center
08:00PM 50.3333 -55.7000 70° East 490 564 36,000  Level Gander Center
08:01PM 50.4000 -55.5333 58° Northeast 490 564 36,000  Level Gander Center
08:02PM 50.4667 -55.3167 64° Northeast 490 564 36,000  Level Gander Center
08:03PM 50.5333 -55.1500 58° Northeast 490 564 36,000  Level Gander Center
08:04PM 50.5833 -54.9500 68° East 490 564 36,000  Level Gander Center
08:05PM 50.6333 -54.7333 70° East 490 564 36,000  Level Gander Center
08:06PM 50.7167 -54.5500 54° Northeast 500 575 36,000  Level Gander Center
08:07PM 50.7500 -54.4000 71° East 500 575 36,000  Level Gander Center
08:07PM 50.7667 -54.3500 62° Northeast 500 575 36,000 600 Level Gander Center
08:08PM 50.8167 -54.1500 68° East 490 564 36,800 480 Climbing Gander Center
08:09PM 50.8833 -53.9667 60° Northeast 490 564 37,000 60 Climbing Gander Center
08:10PM 50.9500 -53.7667 62° Northeast 490 564 37,000  Level Gander Center
08:11PM 51.0000 -53.5667 68° East 490 564 37,000  Level Gander Center
08:12PM 51.0500 -53.3667 68° East 490 564 37,000  Level Moncton Center
08:13PM 51.1167 -53.1667 62° Northeast 490 564 37,000  Level Moncton Center
08:14PM 51.1667 -52.9667 68° East 490 564 37,000  Level Moncton Center
08:15PM 51.2167 -52.8000 64° Northeast 480 552 37,000  Level Moncton Center
08:16PM 51.2833 -52.6000 62° Northeast 480 552 37,000  Level Moncton Center
08:17PM 51.3333 -52.3833 70° East 500 575 37,000  Level Moncton Center
08:18PM 51.3833 -52.2167 64° Northeast 470 541 37,000  Level Gander Center
08:19PM 51.4500 -52.0167 62° Northeast 480 552 37,000  Level Gander Center
08:20PM 51.5000 -51.8167 68° East 480 552 37,000  Level Gander Center
08:21PM 51.5500 -51.6167 68° East 480 552 37,000  Level Gander Center
08:22PM 51.6000 -51.4333 66° East 480 552 37,000  Level Gander Center
08:23PM 51.6667 -51.2333 62° Northeast 480 552 37,000  Level Gander Center
08:24PM 51.7167 -51.0333 68° East 480 552 37,000  Level Gander Center
08:25PM 51.7667 -50.8500 66° East 480 552 37,000  Level Gander Center
08:26PM 51.8167 -50.6500 68° East 470 541 37,000  Level Gander Center
08:27PM 51.8667 -50.4500 68° East 470 541 37,000  Level Gander Center
08:28PM 51.9167 -50.2500 68° East 470 541 37,000  Level Gander Center
08:30PM 52.0039 -49.9731 77° East  Level FlightAware Approximate
08:37PM 52.2048 -48.4985 77° East  Level FlightAware Approximate
08:38PM 52.2320 -48.2868 78° East  Level FlightAware Approximate
08:39PM 52.2588 -48.0748 78° East  Level FlightAware Approximate
08:40PM 52.2852 -47.8626 78° East  Level FlightAware Approximate
08:41PM 52.3113 -47.6501 79° East  Level FlightAware Approximate
08:42PM 52.3370 -47.4374 79° East  Level FlightAware Approximate
08:43PM 52.3623 -47.2244 79° East  Level FlightAware Approximate
08:44PM 52.3872 -47.0112 79° East  Level FlightAware Approximate
08:45PM 52.4117 -46.7978 79° East  Level FlightAware Approximate
08:46PM 52.4358 -46.5841 79° East  Level FlightAware Approximate
08:47PM 52.4596 -46.3702 80° East  Level FlightAware Approximate
08:48PM 52.4829 -46.1560 80° East  Level FlightAware Approximate
08:49PM 52.5059 -45.9416 80° East  Level FlightAware Approximate
08:50PM 52.5285 -45.7270 80° East  Level FlightAware Approximate
08:51PM 52.5507 -45.5122 80° East  Level FlightAware Approximate
08:52PM 52.5726 -45.2972 80° East  Level FlightAware Approximate
08:53PM 52.5940 -45.0819 81° East  Level FlightAware Approximate
08:54PM 52.6150 -44.8665 81° East  Level FlightAware Approximate
08:55PM 52.6357 -44.6508 81° East  Level FlightAware Approximate
08:56PM 52.6559 -44.4350 81° East  Level FlightAware Approximate
08:57PM 52.6758 -44.2189 81° East  Level FlightAware Approximate
08:58PM 52.6952 -44.0026 81° East  Level FlightAware Approximate
08:59PM 52.7143 -43.7862 82° East  Level FlightAware Approximate
09:00PM 52.7330 -43.5696 82° East  Level FlightAware Approximate
09:01PM 52.7513 -43.3527 82° East  Level FlightAware Approximate
09:02PM 52.7692 -43.1357 82° East  Level FlightAware Approximate
09:03PM 52.7867 -42.9186 82° East  Level FlightAware Approximate
09:04PM 52.8037 -42.7012 83° East  Level FlightAware Approximate
09:05PM 52.8208 -42.4838 82° East  Level FlightAware Approximate
09:06PM 52.8386 -42.2664 82° East  Level FlightAware Approximate
09:07PM 52.8560 -42.0489 82° East  Level FlightAware Approximate
09:08PM 52.8730 -41.8312 83° East  Level FlightAware Approximate
09:09PM 52.8897 -41.6133 83° East  Level FlightAware Approximate
09:10PM 52.9059 -41.3953 83° East  Level FlightAware Approximate
09:11PM 52.9217 -41.1771 83° East  Level FlightAware Approximate
09:12PM 52.9371 -40.9587 83° East  Level FlightAware Approximate
09:13PM 52.9521 -40.7402 83° East  Level FlightAware Approximate
09:14PM 52.9668 -40.5215 84° East  Level FlightAware Approximate
09:15PM 52.9810 -40.3027 84° East  Level FlightAware Approximate
09:16PM 52.9948 -40.0838 84° East  Level FlightAware Approximate
09:17PM 53.0191 -39.8677 76° East  Level FlightAware Approximate
09:18PM 53.0497 -39.6533 77° East  Level FlightAware Approximate
09:19PM 53.0799 -39.4385 77° East  Level FlightAware Approximate
09:20PM 53.1097 -39.2235 77° East  Level FlightAware Approximate
09:21PM 53.1392 -39.0082 77° East  Level FlightAware Approximate
09:22PM 53.1682 -38.7925 77° East  Level FlightAware Approximate
09:23PM 53.1969 -38.5766 77° East  Level FlightAware Approximate
09:24PM 53.2252 -38.3604 78° East  Level FlightAware Approximate
09:25PM 53.2530 -38.1439 78° East  Level FlightAware Approximate
09:26PM 53.2805 -37.9272 78° East  Level FlightAware Approximate
09:27PM 53.3076 -37.7101 78° East  Level FlightAware Approximate
09:28PM 53.3343 -37.4928 78° East  Level FlightAware Approximate
09:29PM 53.3606 -37.2752 78° East  Level FlightAware Approximate
09:30PM 53.3865 -37.0573 79° East  Level FlightAware Approximate
09:31PM 53.4120 -36.8392 79° East  Level FlightAware Approximate
09:32PM 53.4371 -36.6208 79° East  Level FlightAware Approximate
09:33PM 53.4619 -36.4022 79° East  Level FlightAware Approximate
09:34PM 53.4862 -36.1833 79° East  Level FlightAware Approximate
09:35PM 53.5101 -35.9642 80° East  Level FlightAware Approximate
09:36PM 53.5336 -35.7448 80° East  Level FlightAware Approximate
09:37PM 53.5567 -35.5252 80° East  Level FlightAware Approximate
09:38PM 53.5794 -35.3053 80° East  Level FlightAware Approximate
09:39PM 53.6017 -35.0852 80° East  Level FlightAware Approximate
09:40PM 53.6236 -34.8649 80° East  Level FlightAware Approximate
09:41PM 53.6451 -34.6443 81° East  Level FlightAware Approximate
09:42PM 53.6662 -34.4236 81° East  Level FlightAware Approximate
09:43PM 53.6869 -34.2026 81° East  Level FlightAware Approximate
09:44PM 53.7072 -33.9814 81° East  Level FlightAware Approximate
09:45PM 53.7271 -33.7599 81° East  Level FlightAware Approximate
09:46PM 53.7465 -33.5383 81° East  Level FlightAware Approximate
09:47PM 53.7656 -33.3165 82° East  Level FlightAware Approximate
09:48PM 53.7842 -33.0945 82° East  Level FlightAware Approximate
09:49PM 53.8024 -32.8722 82° East  Level FlightAware Approximate
09:50PM 53.8203 -32.6498 82° East  Level FlightAware Approximate
09:51PM 53.8377 -32.4272 82° East  Level FlightAware Approximate
09:52PM 53.8547 -32.2044 83° East  Level FlightAware Approximate
09:53PM 53.8713 -31.9814 83° East  Level FlightAware Approximate
09:54PM 53.8874 -31.7583 83° East  Level FlightAware Approximate
09:55PM 53.9032 -31.5350 83° East  Level FlightAware Approximate
09:56PM 53.9185 -31.3115 83° East  Level FlightAware Approximate
09:57PM 53.9335 -31.0879 83° East  Level FlightAware Approximate
09:58PM 53.9480 -30.8641 84° East  Level FlightAware Approximate
09:59PM 53.9621 -30.6401 84° East  Level FlightAware Approximate
10:00PM 53.9757 -30.4160 84° East  Level FlightAware Approximate
10:01PM 53.9890 -30.1918 84° East  Level FlightAware Approximate
10:02PM 54.0014 -29.9673 86° East  Level FlightAware Approximate
10:03PM 54.0104 -29.7424 86° East  Level FlightAware Approximate
10:04PM 54.0191 -29.5173 86° East  Level FlightAware Approximate
10:05PM 54.0274 -29.2921 86° East  Level FlightAware Approximate
10:06PM 54.0352 -29.0669 87° East  Level FlightAware Approximate
10:07PM 54.0426 -28.8416 87° East  Level FlightAware Approximate
10:08PM 54.0496 -28.6161 87° East  Level FlightAware Approximate
10:09PM 54.0561 -28.3907 87° East  Level FlightAware Approximate
10:10PM 54.0623 -28.1651 87° East  Level FlightAware Approximate
10:11PM 54.0680 -27.9395 87° East  Level FlightAware Approximate
10:12PM 54.0733 -27.7138 88° East  Level FlightAware Approximate
10:13PM 54.0781 -27.4881 88° East  Level FlightAware Approximate
10:14PM 54.0826 -27.2623 88° East  Level FlightAware Approximate
10:15PM 54.0866 -27.0365 88° East  Level FlightAware Approximate
10:16PM 54.0902 -26.8106 88° East  Level FlightAware Approximate
10:17PM 54.0934 -26.5847 89° East  Level FlightAware Approximate
10:18PM 54.0962 -26.3588 89° East  Level FlightAware Approximate
10:19PM 54.0985 -26.1328 89° East  Level FlightAware Approximate
10:20PM 54.1004 -25.9068 89° East  Level FlightAware Approximate
10:21PM 54.1019 -25.6808 89° East  Level FlightAware Approximate
10:22PM 54.1030 -25.4548 89° East  Level FlightAware Approximate
10:23PM 54.1036 -25.2288 90° East  Level FlightAware Approximate
10:24PM 54.1038 -25.0027 90° East  Level FlightAware Approximate
10:25PM 54.1036 -24.7767 90° East  Level FlightAware Approximate
10:26PM 54.1030 -24.5507 90° East  Level FlightAware Approximate
10:27PM 54.1019 -24.3247 90° East  Level FlightAware Approximate
10:28PM 54.1004 -24.0986 91° East  Level FlightAware Approximate
10:29PM 54.0985 -23.8727 91° East  Level FlightAware Approximate
10:30PM 54.0962 -23.6467 91° East  Level FlightAware Approximate
10:31PM 54.0935 -23.4207 91° East  Level FlightAware Approximate
10:32PM 54.0903 -23.1948 91° East  Level FlightAware Approximate
10:33PM 54.0867 -22.9690 91° East  Level FlightAware Approximate
10:34PM 54.0827 -22.7431 92° East  Level FlightAware Approximate
10:35PM 54.0783 -22.5174 92° East  Level FlightAware Approximate
10:36PM 54.0734 -22.2916 92° East  Level FlightAware Approximate
10:37PM 54.0681 -22.0660 92° East  Level FlightAware Approximate
10:38PM 54.0624 -21.8403 92° East  Level FlightAware Approximate
10:39PM 54.0563 -21.6148 93° East  Level FlightAware Approximate
10:40PM 54.0497 -21.3893 93° East  Level FlightAware Approximate
10:41PM 54.0428 -21.1639 93° East  Level FlightAware Approximate
10:42PM 54.0354 -20.9386 93° East  Level FlightAware Approximate
10:43PM 54.0275 -20.7133 93° East  Level FlightAware Approximate
10:44PM 54.0193 -20.4881 93° East  Level FlightAware Approximate
10:45PM 54.0107 -20.2631 94° East  Level FlightAware Approximate
10:46PM 54.0016 -20.0381 94° East  Level FlightAware Approximate
10:47PM 54.0076 -19.8132 86° East  Level FlightAware Approximate
10:48PM 54.0164 -19.5881 86° East  Level FlightAware Approximate
10:49PM 54.0247 -19.3630 86° East  Level FlightAware Approximate
10:50PM 54.0326 -19.1378 86° East  Level FlightAware Approximate
10:51PM 54.0401 -18.9125 87° East  Level FlightAware Approximate
10:52PM 54.0472 -18.6871 87° East  Level FlightAware Approximate
10:53PM 54.0539 -18.4616 87° East  Level FlightAware Approximate
10:54PM 54.0601 -18.2361 87° East  Level FlightAware Approximate
10:55PM 54.0659 -18.0105 87° East  Level FlightAware Approximate
10:56PM 54.0713 -17.7848 88° East  Level FlightAware Approximate
10:57PM 54.0763 -17.5591 88° East  Level FlightAware Approximate
10:58PM 54.0808 -17.3333 88° East  Level FlightAware Approximate
10:59PM 54.0849 -17.1075 88° East  Level FlightAware Approximate
11:00PM 54.0886 -16.8817 88° East  Level FlightAware Approximate
11:01PM 54.0919 -16.6558 88° East  Level FlightAware Approximate
11:02PM 54.0948 -16.4299 89° East  Level FlightAware Approximate
11:03PM 54.0972 -16.2039 89° East  Level FlightAware Approximate
11:04PM 54.0992 -15.9779 89° East  Level FlightAware Approximate
11:05PM 54.1008 -15.7519 89° East  Level FlightAware Approximate
11:06PM 54.1019 -15.5259 89° East  Level FlightAware Approximate
11:07PM 54.1027 -15.2999 90° East  Level FlightAware Approximate
11:07PM 54.0120 -14.4360 90° East 536 617 37,000  Level FlightAware
11:08PM 54.1030 -15.0739 90° East  Level FlightAware Approximate
11:08PM 54.0150 -14.1420 89° East 537 618 37,000  Level FlightAware
11:11PM 54.0869 -13.6568 76° East  Level FlightAware Approximate
11:11PM 54.0200 -13.5500 76° East 535 616 37,000  Level FlightAware
11:11PM 54.0200 -13.3800 90° East 533 613 37,000  Level FlightAware
11:12PM 54.0210 -13.1940 89° East 529 609 37,000  Level FlightAware
11:13PM 54.0210 -13.0490 90° East 526 605 37,000  Level FlightAware
11:13PM 54.0210 -12.8870 90° East 523 602 37,000  Level FlightAware
11:14PM 54.0210 -12.6990 90° East 520 598 37,000  Level FlightAware
11:15PM 54.0200 -12.5170 90° East 519 597 37,000  Level FlightAware
11:15PM 54.0200 -12.3560 90° East 519 597 37,000  Level FlightAware
11:16PM 54.0190 -12.1710 90° East 520 598 37,000  Level FlightAware
11:17PM 54.0180 -12.0090 91° East 521 600 37,000  Level FlightAware
11:18PM 54.0160 -11.8490 91° East 522 601 37,000  Level FlightAware
11:18PM 54.0140 -11.6630 91° East 525 604 37,000  Level FlightAware
11:19PM 54.0120 -11.4930 91° East 529 609 37,000  Level FlightAware
11:20PM 54.0090 -11.3090 92° East 533 613 37,000  Level FlightAware
11:20PM 54.0070 -11.1420 91° East 536 617 37,000  Level FlightAware
11:21PM 54.0040 -10.9710 92° East 537 618 37,000  Level FlightAware
11:22PM 54.0010 -10.7850 91° East 538 619 37,000  Level FlightAware
11:22PM 53.9970 -10.6120 92° East 539 620 37,000  Level FlightAware
11:23PM 53.9930 -10.4560 92° East 539 620 37,000  Level FlightAware
11:24PM 53.9890 -10.2590 92° East 539 620 37,000  Level FlightAware
11:25PM 53.9850 -10.0880 92° East 538 619 37,000  Level FlightAware
11:25PM 53.9790 -9.8980 93° East 536 617 37,000  Level FlightAware
11:26PM 53.9750 -9.7310 92° East 534 615 37,000  Level FlightAware
11:27PM 53.9690 -9.5640 93° East 532 612 37,000  Level FlightAware
11:27PM 53.9630 -9.3770 93° East 530 610 37,000  Level FlightAware
11:28PM 53.9580 -9.2110 93° East 528 608 37,000  Level FlightAware
11:29PM 53.9510 -9.0230 94° East 528 608 37,000 -1,500 Level FlightAware
11:29PM 53.9398 -8.9624 94° East 450 518 35,400 -2,640 Descending FlightAware UK
11:29PM 53.9372 -8.8887 93° East 448 516 35,400 4,560 Level FlightAware UK
11:29PM 53.9450 -8.8600 93° East 528 608 37,000  Climbing FlightAware
11:30PM 53.9348 -8.8150 93° East 446 513 35,400 -2,940 Descending FlightAware UK
11:30PM 53.9320 -8.7408 94° East 446 513 35,400 3,840 Level FlightAware UK
11:30PM 53.9390 -8.6990 94° East 529 609 37,000  Climbing FlightAware
11:30PM 53.9283 -8.6422 94° East 448 516 35,400 -2,760 Descending FlightAware UK
11:31PM 53.9252 -8.5671 94° East 448 516 35,400 3,420 Level FlightAware UK
11:31PM 53.9310 -8.5080 94° East 530 610 37,000  Climbing FlightAware
11:31PM 53.9204 -8.4435 94° East 450 518 35,400 -2,580 Descending FlightAware UK
11:32PM 53.9174 -8.3691 94° East 450 518 35,400 4,800 Level FlightAware UK
11:32PM 53.9250 -8.3610 94° East 531 611 37,000  Climbing FlightAware
11:32PM 53.9144 -8.2946 94° East 452 520 35,400 -2,880 Descending FlightAware UK
11:32PM 53.9113 -8.2203 94° East 452 520 35,400 3,960 Level FlightAware UK
11:32PM 53.9170 -8.1780 94° East 533 613 37,000  Climbing FlightAware
11:33PM 53.9072 -8.1208 94° East 452 520 35,400 -2,700 Descending FlightAware UK
11:33PM 53.9040 -8.0460 94° East 454 522 35,400 3,540 Level FlightAware UK
11:33PM 53.9090 -7.9880 94° East 535 616 37,000  Climbing FlightAware
11:33PM 53.8996 -7.9463 94° East 454 522 35,400 -2,940 Descending FlightAware UK
11:34PM 53.8962 -7.8706 94° East 456 525 35,400 3,840 Level FlightAware UK
11:34PM 53.9010 -7.8260 94° East 536 617 37,000  Climbing FlightAware
11:34PM 53.8917 -7.7705 94° East 456 525 35,400 -2,760 Descending FlightAware UK
11:34PM 53.8881 -7.6953 95° East 454 522 35,400 3,420 Level FlightAware UK
11:34PM 53.8920 -7.6350 95° East 536 617 37,000  Climbing FlightAware
11:35PM 53.8826 -7.5692 95° East 456 525 35,400 -2,580 Descending FlightAware UK
11:35PM 53.8791 -7.4940 95° East 456 525 35,400 4,800 Level FlightAware UK
11:35PM 53.8840 -7.4690 95° East 537 618 37,000  Climbing FlightAware
11:35PM 53.8754 -7.4189 95° East 458 527 35,400 -2,880 Descending FlightAware UK
11:36PM 53.8716 -7.3437 95° East 458 527 35,400 3,960 Level FlightAware UK
11:36PM 53.8750 -7.2990 95° East 538 619 37,000  Climbing FlightAware
11:36PM 53.8666 -7.2427 95° East 458 527 35,400 -2,700 Descending FlightAware UK
11:36PM 53.8627 -7.1675 95° East 458 527 35,400 3,540 Level FlightAware UK
11:36PM 53.8650 -7.1080 95° East 538 619 37,000  Climbing FlightAware
11:37PM 53.8577 -7.0672 95° East 458 527 35,400 -2,940 Descending FlightAware UK
11:37PM 53.8539 -6.9928 95° East 458 527 35,400 3,840 Level FlightAware UK
11:37PM 53.8560 -6.9370 95° East 537 618 37,000  Climbing FlightAware
11:37PM 53.8487 -6.8929 95° East 458 527 35,400 -2,760 Descending FlightAware UK
11:38PM 53.8446 -6.8172 95° East 456 525 35,400 3,420 Level FlightAware UK
11:38PM 53.8450 -6.7530 95° East 536 617 37,000  Climbing FlightAware
11:38PM 53.8378 -6.6926 95° East 458 527 35,400 -2,580 Descending FlightAware UK
11:39PM 53.8337 -6.6178 95° East 456 525 35,400 4,800 Level FlightAware UK
11:39PM 53.8360 -6.5910 95° East 535 616 37,000  Climbing FlightAware
11:39PM 53.8296 -6.5431 95° East 456 525 35,400 -2,760 Descending FlightAware UK
11:39PM 53.8257 -6.4676 95° East 454 522 35,400 3,960 Level FlightAware UK
11:39PM 53.8260 -6.4190 95° East 534 615 37,000  Climbing FlightAware
11:40PM 53.8200 -6.3689 95° East 454 522 35,400 -2,640 Descending FlightAware UK
11:40PM 53.8156 -6.2936 96° East 454 522 35,400 3,540 Level FlightAware UK
11:40PM 53.8140 -6.2310 96° East 534 615 37,000  Climbing FlightAware
11:40PM 53.8097 -6.1927 96° East 456 525 35,400 -2,880 Descending FlightAware UK
11:41PM 53.8054 -6.1198 96° East 454 522 35,400 3,960 Level FlightAware UK
11:41PM 53.8040 -6.0650 96° East 533 613 37,000  Climbing FlightAware
11:41PM 53.7995 -6.0199 96° East 454 522 35,400 -2,700 Descending FlightAware UK
11:41PM 53.7950 -5.9463 96° East 454 522 35,400 3,540 Level FlightAware UK
11:41PM 53.7920 -5.8810 96° East 532 612 37,000  Climbing FlightAware
11:42PM 53.7891 -5.8473 96° East 454 522 35,400 -2,940 Descending FlightAware UK
11:42PM 53.7844 -5.7731 96° East 454 522 35,400 3,840 Level FlightAware UK
11:42PM 53.7820 -5.7140 96° East 532 612 37,000  Climbing FlightAware
11:42PM 53.7781 -5.6743 96° East 454 522 35,400 -2,760 Descending FlightAware UK
11:43PM 53.7734 -5.6002 96° East 454 522 35,400 3,420 Level FlightAware UK
11:43PM 53.7690 -5.5290 96° East 531 611 37,000  Climbing FlightAware
11:43PM 53.7655 -5.4759 96° East 454 522 35,400 -2,580 Descending FlightAware UK
11:43PM 53.7602 -5.4021 97° East 454 522 35,400 4,800 Level FlightAware UK
11:43PM 53.7570 -5.3690 97° East 529 609 37,000  Climbing FlightAware
11:44PM 53.7534 -5.3289 97° East 454 522 35,400 -2,880 Descending FlightAware UK
11:44PM 53.7469 -5.2539 98° East 454 522 35,400 3,300 Level FlightAware UK
11:44PM 53.7410 -5.1780 98° East 532 612 37,000  Climbing FlightAware
11:45PM 53.7413 -5.1315 98° East 454 522 35,400 -2,640 Descending FlightAware UK
11:45PM 53.7392 -5.0568 93° East 454 522 35,400 4,560 Level FlightAware UK
11:45PM 53.7350 -5.0130 93° East 534 615 37,000  Climbing FlightAware
11:45PM 53.7379 -4.9819 93° East 454 522 35,400 -2,940 Descending FlightAware UK
11:45PM 53.7370 -4.9069 91° East 452 520 35,400 3,840 Level FlightAware UK
11:46PM 53.7320 -4.8630 91° East 536 617 37,000  Climbing FlightAware
11:46PM 53.7360 -4.8068 91° East 454 522 35,400 -2,760 Descending FlightAware UK
11:46PM 53.7355 -4.7317 91° East 454 522 35,400 4,140 Level FlightAware UK
11:46PM 53.7290 -4.6930 91° East 536 617 37,000  Climbing FlightAware
11:47PM 53.7344 -4.6316 91° East 454 522 35,400 -2,640 Descending FlightAware UK
11:47PM 53.7336 -4.5566 91° East 454 522 35,400 3,660 Level FlightAware UK
11:47PM 53.7260 -4.4900 91° East 536 617 37,000  Climbing FlightAware
11:47PM 53.7327 -4.4557 91° East 454 522 35,400 -2,880 Descending FlightAware UK
11:48PM 53.7319 -4.3807 91° East 452 520 35,400 3,960 Level FlightAware UK
11:48PM 53.7240 -4.3270 91° East 535 616 37,000  Climbing FlightAware
11:48PM 53.7308 -4.2808 91° East 452 520 35,400 -2,700 Descending FlightAware UK
11:48PM 53.7301 -4.2050 91° East 452 520 35,400 3,540 Level FlightAware UK
11:48PM 53.7210 -4.1400 91° East 535 616 37,000  Climbing FlightAware
11:49PM 53.7288 -4.1051 91° East 452 520 35,400 -2,940 Descending FlightAware UK
11:49PM 53.7278 -4.0293 91° East 452 520 35,400 3,840 Level FlightAware UK
11:49PM 53.7190 -3.9760 91° East 534 615 37,000  Climbing FlightAware
11:49PM 53.7265 -3.9303 91° East 452 520 35,400 -2,760 Descending FlightAware UK
11:50PM 53.7255 -3.8546 91° East 452 520 35,400 3,420 Level FlightAware UK
11:50PM 53.7150 -3.7800 91° East 535 616 37,000  Climbing FlightAware
11:50PM 53.7240 -3.7538 91° East 452 520 35,400 -3,000 Descending FlightAware UK
11:50PM 53.7229 -3.6797 91° East 452 520 35,400 3,840 Level FlightAware UK
11:50PM 53.7120 -3.6110 91° East 534 615 37,000  Climbing FlightAware
11:51PM 53.7214 -3.5789 91° East 452 520 35,400  Descending FlightAware UK
11:51PM 53.7106 -3.5321 91° East 534 615 37,000  Climbing FlightAware ADS-B
11:51PM 53.7200 -3.5048 91° East 452 520 35,400  Descending FlightAware UK
11:51PM 53.7080 -3.4059 91° East 534 615 37,000  Climbing FlightAware ADS-B
11:52PM 53.7177 -3.3792 91° East 452 520 35,400 -2,760 Descending FlightAware UK
11:52PM 53.7163 -3.3044 92° East 454 522 35,400 4,140 Level FlightAware UK
11:52PM 53.7042 -3.2398 92° East 534 615 37,000  Climbing FlightAware ADS-B
11:52PM 53.7144 -3.2053 92° East 452 520 35,400  Descending FlightAware UK
11:52PM 53.7012 -3.1028 92° East 533 613 37,000  Climbing FlightAware ADS-B
11:53PM 53.7119 -3.0797 92° East 452 520 35,400  Descending FlightAware UK
11:53PM 53.6982 -2.9759 92° East 533 613 37,000  Climbing FlightAware ADS-B
11:53PM 53.7093 -2.9535 92° East 452 520 35,400  Descending FlightAware UK
11:53PM 53.6950 -2.8465 92° East 533 613 37,000  Climbing FlightAware ADS-B
11:54PM 53.7065 -2.8298 92° East 452 520 35,400  Descending FlightAware UK
11:54PM 53.6917 -2.7223 92° East 534 615 37,000  Climbing FlightAware ADS-B
11:54PM 53.7029 -2.6813 92° East 454 522 35,400  Descending FlightAware UK
11:55PM 53.6883 -2.5964 92° East 534 615 37,000  Climbing FlightAware ADS-B
11:55PM 53.6998 -2.5568 92° East 452 520 35,400 -2,640 Descending FlightAware UK
11:55PM 53.6980 -2.4830 92° East 454 522 35,400 2,700 Level FlightAware UK
11:55PM 53.6818 -2.3671 92° East 533 613 37,000  Climbing FlightAware ADS-B
11:56PM 53.6938 -2.3313 92° East 454 522 35,400  Descending FlightAware UK
11:56PM 53.6782 -2.2421 92° East 533 613 37,000  Climbing FlightAware ADS-B
11:56PM 53.6905 -2.2077 92° East 454 522 35,400  Descending FlightAware UK
11:56PM 53.6744 -2.1164 92° East 533 613 37,000  Climbing FlightAware ADS-B
11:57PM 53.6869 -2.0826 92° East 454 522 35,400  Descending FlightAware UK
11:57PM 53.6706 -1.9917 92° East 533 613 37,000  Climbing FlightAware ADS-B
11:57PM 53.6832 -1.9576 92° East 454 522 35,400  Descending FlightAware UK
11:57PM 53.6663 -1.8636 92° East 532 612 37,000  Climbing FlightAware ADS-B
11:58PM 53.6793 -1.8334 92° East 454 522 35,400  Descending FlightAware UK
11:58PM 53.6620 -1.7366 92° East 532 612 37,000  Climbing FlightAware ADS-B
11:58PM 53.6753 -1.7095 92° East 454 522 35,400  Descending FlightAware UK
11:58PM 53.6577 -1.6113 92° East 531 611 37,000  Climbing FlightAware ADS-B
11:59PM 53.6712 -1.5855 92° East 452 520 35,400 -2,880 Descending FlightAware UK
11:59PM 53.6687 -1.5113 93° East 454 522 35,400 3,840 Level FlightAware UK
11:59PM 53.6519 -1.4433 93° East 531 611 37,000  Climbing FlightAware ADS-B
11:59PM 53.6653 -1.4131 93° East 454 522 35,400  Descending FlightAware UK
12:00AM 53.6472 -1.3173 93° East 530 610 37,000  Climbing FlightAware ADS-B
12:00AM 53.6611 -1.2894 93° East 454 522 35,400  Descending FlightAware UK
12:00AM 53.6426 -1.1924 93° East 530 610 37,000  Climbing FlightAware ADS-B
12:00AM 53.6563 -1.1650 93° East 452 520 35,400  Descending FlightAware UK
12:01AM 53.6378 -1.0659 93° East 530 610 37,000  Climbing FlightAware ADS-B
12:01AM 53.6517 -1.0407 93° East 454 522 35,400  Descending FlightAware UK
12:01AM 53.6330 -0.9411 93° East 530 610 37,000  Climbing FlightAware ADS-B
12:01AM 53.6470 -0.9181 93° East 454 522 35,400 -2,940 Descending FlightAware UK
12:02AM 53.6440 -0.8432 94° East 454 522 35,400 3,960 Level FlightAware UK
12:02AM 53.6267 -0.7843 94° East 530 610 37,000  Climbing FlightAware ADS-B
12:02AM 53.6402 -0.7436 94° East 452 520 35,400  Descending FlightAware UK
12:02AM 53.6213 -0.6547 94° East 529 609 37,000  Climbing FlightAware ADS-B
12:03AM 53.6350 -0.6195 94° East 452 520 35,400  Descending FlightAware UK
12:03AM 53.6162 -0.5310 94° East 529 609 37,000  Climbing FlightAware ADS-B
12:03AM 53.6298 -0.4971 94° East 452 520 35,400 -2,700 Descending FlightAware UK
12:03AM 53.6267 -0.4225 94° East 452 520 35,400 4,140 Level FlightAware UK
12:04AM 53.6090 -0.3657 94° East 528 608 37,000  Climbing FlightAware ADS-B
12:04AM 53.6225 -0.3248 94° East 454 522 35,400  Descending FlightAware UK
12:04AM 53.6035 -0.2405 94° East 529 609 37,000  Climbing FlightAware ADS-B
12:04AM 53.6168 -0.2002 94° East 452 520 35,400  Descending FlightAware UK
12:05AM 53.5980 -0.1179 94° East 529 609 37,000  Climbing FlightAware ADS-B
12:05AM 53.6112 -0.0763 94° East 454 522 35,400  Descending FlightAware UK
12:05AM 53.5923 0.0055 94° East 529 609 37,000  Climbing FlightAware ADS-B
12:05AM 53.6054 0.0458 94° East 454 522 35,400  Descending FlightAware UK
12:06AM 53.5865 0.1289 94° East 528 608 37,000  Climbing FlightAware ADS-B
12:06AM 53.5996 0.1686 94° East 452 520 35,400  Descending FlightAware UK
12:06AM 53.5806 0.2520 94° East 528 608 37,000  Climbing FlightAware ADS-B
12:06AM 53.5937 0.2921 94° East 452 520 35,400  Descending FlightAware UK
12:07AM 53.5746 0.3768 94° East 528 608 37,000  Climbing FlightAware ADS-B
12:07AM 53.5875 0.4147 94° East 452 520 35,400  Descending FlightAware UK
12:07AM 53.5685 0.5022 94° East 527 606 37,000  Climbing FlightAware ADS-B
12:07AM 53.5812 0.5380 94° East 454 522 35,400  Descending FlightAware UK
12:08AM 53.5621 0.6261 94° East 527 606 37,000  Climbing FlightAware ADS-B
12:08AM 53.5749 0.6604 94° East 454 522 35,400  Descending FlightAware UK
12:08AM 53.5558 0.7529 94° East 526 605 37,000  Climbing FlightAware ADS-B
12:08AM 53.5684 0.7827 94° East 452 520 35,400 -2,940 Descending FlightAware UK
12:09AM 53.5646 0.8560 95° East 454 522 35,400 3,540 Level FlightAware UK
12:09AM 53.5469 0.9226 95° East 526 605 37,000  Climbing FlightAware ADS-B
12:09AM 53.5592 0.9536 95° East 452 520 35,400 -2,880 Descending FlightAware UK
12:09AM 53.5551 1.0276 95° East 452 520 35,400  Level FlightAware UK
12:10AM 53.5509 1.1007 95° East 452 520 35,400  Level FlightAware UK
12:10AM 53.5468 1.1737 95° East 452 520 35,400  Level FlightAware UK
12:10AM 53.5427 1.2467 95° East 452 520 35,400  Level FlightAware UK
12:11AM 53.5385 1.3188 96° East 452 520 35,400 3,840 Level FlightAware UK
12:11AM 53.5216 1.3824 96° East 523 602 37,000  Climbing FlightAware ADS-B
12:11AM 53.5328 1.4183 96° East 452 520 35,400  Descending FlightAware UK
12:11AM 53.5137 1.5228 96° East 523 602 37,000  Climbing FlightAware ADS-B
12:12AM 53.5240 1.5637 96° East 452 520 35,400 -2,700 Descending FlightAware UK
12:12AM 53.5196 1.6364 96° East 452 520 35,400 4,140 Level FlightAware UK
12:12AM 53.5041 1.6881 96° East 522 601 37,000  Climbing FlightAware ADS-B
12:12AM 53.5137 1.7333 96° East 450 518 35,400  Descending FlightAware UK
12:12AM 53.4967 1.8127 96° East 523 602 37,000  Climbing FlightAware ADS-B
12:13AM 53.5062 1.8542 96° East 450 518 35,400  Descending FlightAware UK
12:13AM 53.4886 1.9461 96° East 522 601 37,000  Climbing FlightAware ADS-B
12:13AM 53.4988 1.9742 96° East 450 518 35,400 -2,940 Descending FlightAware UK
12:14AM 53.4940 2.0474 96° East 450 518 35,400 4,800 Level FlightAware UK
12:14AM 53.4800 2.0867 96° East 522 601 37,000  Climbing FlightAware ADS-B
12:14AM 53.4893 2.1205 96° East 450 518 35,400  Descending FlightAware UK
12:14AM 53.4725 2.2094 96° East 522 601 37,000  Climbing FlightAware ADS-B
12:14AM 53.4815 2.2395 96° East 450 518 35,400 -2,940 Descending FlightAware UK
12:15AM 53.4766 2.3118 96° East 450 518 35,400 2,700 Level FlightAware UK
12:15AM 53.4600 2.4030 96° East 521 600 37,000  Climbing FlightAware
12:15AM 53.4718 2.3841 96° East 450 518 35,400 -5,100 Descending FlightAware UK
12:15AM 53.4668 2.4579 96° East 450 518 35,400  Level FlightAware UK
12:16AM 53.4621 2.5293 96° East 450 518 35,400 3,660 Level FlightAware UK
12:16AM 53.4490 2.5720 96° East 521 600 37,000  Climbing FlightAware
12:16AM 53.4555 2.6256 96° East 450 518 35,400 -2,880 Descending FlightAware UK
12:16AM 53.4504 2.6993 97° East 450 518 35,400 3,960 Level FlightAware UK
12:16AM 53.4380 2.7430 97° East 520 598 37,000  Climbing FlightAware
12:17AM 53.4435 2.7945 97° East 450 518 35,400 -2,700 Descending FlightAware UK
12:17AM 53.4384 2.8657 97° East 450 518 35,400 3,540 Level FlightAware UK
12:17AM 53.4260 2.9210 97° East 520 598 37,000  Climbing FlightAware
12:17AM 53.4315 2.9617 97° East 448 516 35,400 -2,940 Descending FlightAware UK
12:18AM 53.4263 3.0344 97° East 448 516 35,400 3,840 Level FlightAware UK
12:18AM 53.4150 3.0800 97° East 520 598 37,000  Climbing FlightAware
12:18AM 53.4194 3.1312 97° East 448 516 35,400 -2,760 Descending FlightAware UK
12:18AM 53.4141 3.2031 97° East 450 518 35,400 3,420 Level FlightAware UK
12:19AM 53.4020 3.2640 97° East 520 598 37,000  Climbing FlightAware
12:19AM 53.4068 3.2998 97° East 450 518 35,400 -2,940 Descending FlightAware UK
12:19AM 53.4012 3.3718 97° East 450 518 35,400 3,840 Level FlightAware UK
12:19AM 53.3910 3.4200 97° East 521 600 37,000  Climbing FlightAware
12:19AM 53.3939 3.4678 97° East 450 518 35,400 -2,760 Descending FlightAware UK
12:20AM 53.3882 3.5399 97° East 450 518 35,400 4,140 Level FlightAware UK
12:20AM 53.3790 3.5810 97° East 521 600 37,000  Climbing FlightAware
12:20AM 53.3807 3.6368 97° East 450 518 35,400 -2,640 Descending FlightAware UK
12:20AM 53.3752 3.7081 97° East 452 520 35,400 3,660 Level FlightAware UK
12:21AM 53.3870 3.7470 97° East 523 602 37,000  Climbing FlightAware
12:21AM 53.3674 3.8050 97° East 452 520 35,400 -2,880 Descending FlightAware UK
12:21AM 53.3615 3.8771 98° East 452 520 35,400 3,960 Level FlightAware UK
12:21AM 53.3750 3.9050 98° East 524 603 37,000 240 Climbing FlightAware
12:22AM 53.3536 3.9733 98° East 454 522 35,500 -2,520 Descending FlightAware UK
12:22AM 53.3478 4.0454 98° East 454 522 35,500 3,300 Level FlightAware UK
12:22AM 53.3600 4.0840 98° East 524 603 37,000  Climbing FlightAware
12:22AM 53.3396 4.1416 98° East 452 520 35,500 -2,760 Descending FlightAware UK
12:23AM 53.3337 4.2138 98° East 452 520 35,500 3,600 Level FlightAware UK
12:23AM 53.3470 4.2450 98° East 523 602 37,000  Climbing FlightAware
12:23AM 53.3258 4.3099 98° East 454 522 35,500 -2,580 Descending FlightAware UK
12:23AM 53.3195 4.3820 98° East 454 522 35,500 3,900 Level FlightAware UK
12:23AM 53.3340 4.4090 98° East 524 603 37,000  Climbing FlightAware
12:24AM 53.3111 4.4781 98° East 454 522 35,500 -2,460 Descending FlightAware UK
12:24AM 53.3049 4.5502 98° East 454 522 35,500 3,420 Level FlightAware UK
12:24AM 53.3190 4.5840 98° East 524 603 37,000  Climbing FlightAware
12:24AM 53.2964 4.6462 98° East 456 525 35,500 -2,700 Descending FlightAware UK
12:25AM 53.2902 4.7182 98° East 456 525 35,500 3,720 Level FlightAware UK
12:25AM 53.3060 4.7420 98° East 524 603 37,000  Climbing FlightAware
12:25AM 53.2820 4.8150 98° East 456 525 35,500 -2,520 Descending FlightAware UK
12:25AM 53.2756 4.8869 98° East 456 525 35,500 3,300 Level FlightAware UK
12:26AM 53.2900 4.9280 98° East 524 603 37,000  Climbing FlightAware
12:26AM 53.2670 4.9827 98° East 456 525 35,500 -2,760 Descending FlightAware UK
12:26AM 53.2602 5.0545 99° East 456 525 35,500 3,600 Level FlightAware UK
12:26AM 53.2760 5.0870 99° East 524 603 37,000  Climbing FlightAware
12:26AM 53.2516 5.1502 99° East 456 525 35,500 -2,580 Descending FlightAware UK
12:27AM 53.2453 5.2219 98° East 454 522 35,500 3,180 Level FlightAware UK
12:27AM 53.2600 5.2680 98° East 523 602 37,000  Climbing FlightAware
12:27AM 53.2338 5.3416 98° East 456 525 35,500  Descending FlightAware UK
12:28AM 53.2470 5.4090 99° East 523 602 37,000  Climbing FlightAware
12:28AM 53.2271 5.4134 99° East 456 525 35,500 -6,000 Descending FlightAware UK
12:28AM 53.2227 5.4612 99° East 458 527 35,500  Level FlightAware UK
12:28AM 53.2157 5.5328 99° East 458 527 35,500 3,000 Level FlightAware UK
12:28AM 53.2310 5.5820 99° East 523 602 37,000  Climbing FlightAware
12:29AM 53.2041 5.6520 99° East 456 525 35,500 -2,520 Descending FlightAware UK
12:29AM 53.1973 5.7234 99° East 456 525 35,500 3,300 Level FlightAware UK
12:29AM 53.2150 5.7640 99° East 522 601 37,000  Climbing FlightAware
12:29AM 53.1882 5.8185 99° East 456 525 35,500 -2,760 Descending FlightAware UK
12:30AM 53.1817 5.8899 99° East 458 527 35,500 3,600 Level FlightAware UK
12:30AM 53.1990 5.9250 99° East 522 601 37,000  Climbing FlightAware
12:30AM 53.1719 5.9857 99° East 458 527 35,500 -2,580 Descending FlightAware UK
12:30AM 53.1655 6.0568 99° East 458 527 35,500 3,900 Level FlightAware UK
12:30AM 53.1840 6.0820 99° East 521 600 37,000  Climbing FlightAware
12:31AM 53.1558 6.1516 99° East 458 527 35,500 -2,460 Descending FlightAware UK
12:31AM 53.1482 6.2226 100° East 1 1 35,500 3,420 Level FlightAware UK
12:31AM 53.1670 6.2590 100° East 520 598 37,000  Climbing FlightAware
12:31AM 53.1394 6.3173 100° East 1 1 35,500 -2,700 Descending FlightAware UK
12:32AM 53.1314 6.3883 101° East 1 1 35,500 3,720 Level FlightAware UK
12:32AM 53.1510 6.4180 101° East 521 600 37,000  Climbing FlightAware
12:32AM 53.1213 6.4829 101° East 1 1 35,500 -2,520 Descending FlightAware UK
12:32AM 53.1139 6.5537 100° East 1 1 35,500 3,300 Level FlightAware UK
12:33AM 53.1330 6.5920 100° East 520 598 37,000  Climbing FlightAware
12:33AM 53.1040 6.6480 100° East 1 1 35,500 -2,760 Descending FlightAware UK
12:33AM 53.0970 6.7187 99° East 1 1 35,500 3,600 Level FlightAware UK
12:33AM 53.1180 6.7450 99° East 520 598 37,000  Climbing FlightAware
12:33AM 53.0870 6.8129 99° East 1 1 35,500 -2,580 Descending FlightAware UK
12:34AM 53.0798 6.8835 100° East 1 1 35,500 3,180 Level FlightAware UK
12:34AM 53.0990 6.9260 100° East 520 598 37,000  Climbing FlightAware
12:34AM 53.0669 7.0013 100° East 1 1 35,500  Descending FlightAware UK
12:35AM 53.0840 7.0680 100° East 520 598 37,000 1,500 Climbing FlightAware
12:35AM 53.0650 7.2450 100° East 521 600 37,000  Level FlightAware
12:36AM 53.0460 7.4190 100° East 522 601 37,000  Level FlightAware
12:37AM 53.0280 7.5780 101° East 522 601 37,000  Level FlightAware
12:37AM 53.0110 7.7360 100° East 522 601 37,000  Level FlightAware
12:38AM 52.9960 7.9140 98° East 523 602 37,000  Level FlightAware
12:39AM 52.9980 8.0710 89° East 523 602 37,000  Level FlightAware
12:39AM 52.9980 8.2270 90° East 524 603 37,000  Level FlightAware
12:40AM 52.9960 8.4100 91° East 524 603 37,000  Level FlightAware
12:41AM 52.9930 8.5910 92° East 524 603 37,000  Level FlightAware
12:42AM 52.9900 8.7510 92° East 524 603 37,000  Level FlightAware
12:42AM 52.9870 8.9350 91° East 524 603 37,000  Level FlightAware
12:43AM 52.9840 9.0910 92° East 524 603 37,000  Level FlightAware
12:44AM 52.9810 9.2550 92° East 524 603 37,000  Level FlightAware
12:44AM 52.9780 9.4150 92° East 523 602 37,000  Level FlightAware
12:45AM 52.9740 9.5930 92° East 523 602 37,000  Level FlightAware
12:46AM 52.9700 9.7640 92° East 523 602 37,000  Level FlightAware
12:47AM 52.9660 9.9340 92° East 523 602 37,000 -1,020 Level FlightAware
12:47AM 52.9620 10.0930 92° East 536 617 35,700 -1,800 Descending FlightAware
12:48AM 52.9570 10.2770 93° East 539 620 34,500 -1,800 Descending FlightAware
12:49AM 52.9520 10.4400 93° East 532 612 33,200 -1,980 Descending FlightAware
12:49AM 52.9470 10.5990 93° East 522 601 31,900 -1,980 Descending FlightAware
12:50AM 52.9410 10.7760 93° East 513 590 30,400 -2,100 Descending FlightAware
12:51AM 52.9360 10.9340 93° East 504 580 29,000 -2,100 Descending FlightAware
12:51AM 52.9300 11.1080 93° East 496 571 27,500 -2,160 Descending FlightAware
12:52AM 52.9240 11.2620 94° East 493 567 26,000 -2,280 Descending FlightAware
12:53AM 52.9180 11.4310 93° East 488 562 24,300 -2,220 Descending FlightAware
12:54AM 52.9120 11.5750 94° East 489 563 22,900 -2,100 Descending FlightAware
12:54AM 52.9060 11.7050 94° East 482 555 21,700 -1,920 Descending FlightAware
12:55AM 52.8990 11.8780 94° East 473 544 20,200 -1,920 Descending FlightAware
12:56AM 52.8930 12.0110 94° East 464 534 19,000 -2,160 Descending FlightAware
12:56AM 52.8880 12.1650 93° East 456 525 17,500 -2,100 Descending FlightAware
12:57AM 52.8810 12.3530 93° East 441 507 15,700 -2,040 Descending FlightAware
12:59AM 52.8690 12.6570 94° East 403 464 12,500 -1,800 Descending FlightAware
01:01AM 52.7193 12.9642 129° Southeast  Level Estimated
01:02AM 52.6358 13.1339 129° Southeast  Level Estimated
01:02AM 52.7960 13.2610 129° Southeast 318 366 6,400  Level FlightAware
01:03AM 52.5597 13.2877 129° Southeast  Level Estimated
01:05AM 52.5597 13.2877 176° South  Level Estimated
01:05AM 52.7300 13.5420 176° South 278 320 3,100  Level FlightAware
01:07AM 52.5597 13.2877 222° Southwest  Level Estimated
01:07AM 52.6160 13.6450 222° Southwest 208 239 2,800  Level FlightAware
01:07AM 52.6050 13.6050 246° West 184 212 2,800 -420 Level FlightAware
01:08AM 52.5960 13.5200 260° West 172 198 2,200 -720 Descending FlightAware
01:10AM 52.5850 13.4230 259° West 126 145 1,000 -780 Descending FlightAware
01:11AM 52.5810 13.3770 262° West 123 142 500 -600 Descending FlightAware